createdAt,value
2023-03-06T09:08:22.779Z,500.00
2023-03-06T09:09:23.790Z,500.00
2023-03-06T09:10:23.865Z,500.00
2023-03-06T09:11:23.998Z,500.00
2023-03-06T09:12:25.470Z,500.00
2023-03-06T09:13:23.957Z,400.00
2023-03-06T09:14:23.951Z,400.00
2023-03-06T09:15:23.937Z,400.00
2023-03-06T09:16:24.030Z,400.00
2023-03-06T09:17:24.014Z,400.00
2023-03-06T09:18:23.913Z,400.00
2023-03-06T09:19:25.489Z,400.00
2023-03-06T09:20:24.068Z,400.00
2023-03-06T09:21:23.972Z,400.00
2023-03-06T09:22:23.977Z,400.00
2023-03-06T09:23:24.485Z,400.00
2023-03-06T09:24:24.140Z,400.00
2023-03-06T09:25:23.947Z,400.00
2023-03-06T09:26:32.775Z,400.00
2023-03-06T09:27:23.992Z,400.00
2023-03-06T09:28:23.974Z,400.00
2023-03-06T09:29:23.993Z,400.00
2023-03-06T09:30:24.520Z,400.00
2023-03-06T09:31:24.489Z,400.00
2023-03-06T09:32:23.944Z,400.00
2023-03-06T09:33:23.992Z,400.00
2023-03-06T09:34:24.486Z,400.00
2023-03-06T09:35:23.960Z,400.00
2023-03-06T09:36:25.513Z,400.00
2023-03-06T09:37:24.117Z,400.00
2023-03-06T09:38:24.044Z,400.00
2023-03-06T09:39:24.079Z,400.00
2023-03-06T09:40:23.997Z,400.00
2023-03-06T09:41:24.060Z,400.00
2023-03-06T09:42:23.946Z,400.00
2023-03-06T09:43:23.936Z,400.00
2023-03-06T09:44:24.531Z,400.00
2023-03-06T09:45:24.025Z,400.00
2023-03-06T09:46:24.166Z,400.00
2023-03-06T09:47:24.021Z,400.00
2023-03-06T09:48:23.900Z,400.00
2023-03-06T09:49:24.064Z,400.00
2023-03-06T09:50:23.871Z,400.00
2023-03-06T09:51:24.496Z,400.00
2023-03-06T09:52:23.848Z,400.00
2023-03-06T09:53:23.890Z,400.00
2023-03-06T09:54:24.004Z,400.00
2023-03-06T09:55:23.827Z,427.00
2023-03-06T09:56:23.865Z,475.00
2023-03-06T09:57:23.830Z,500.00
2023-03-06T09:58:23.816Z,503.00
2023-03-06T09:59:23.820Z,501.00
2023-03-06T10:00:23.777Z,500.00
2023-03-06T10:01:23.770Z,500.00
2023-03-06T10:02:24.094Z,501.00
2023-03-06T10:03:23.807Z,500.00
2023-03-06T10:04:23.761Z,500.00
2023-03-06T10:05:24.280Z,502.00
2023-03-06T10:06:23.766Z,500.00
2023-03-06T10:07:24.508Z,499.00
2023-03-06T10:08:23.709Z,502.00
2023-03-06T10:09:23.693Z,500.00
2023-03-06T10:10:24.040Z,500.00
2023-03-06T10:11:23.685Z,507.00
2023-03-06T10:12:24.926Z,500.00
2023-03-06T10:13:23.665Z,503.00
2023-03-06T10:14:23.644Z,514.00
2023-03-06T10:15:23.639Z,500.00
2023-03-06T10:16:23.634Z,507.00
2023-03-06T10:17:23.701Z,502.00
2023-03-06T10:18:24.011Z,506.00
2023-03-06T10:19:24.040Z,500.00
2023-03-06T10:20:24.018Z,500.00
2023-03-06T10:21:23.590Z,501.00
2023-03-06T10:22:23.633Z,501.00
2023-03-06T10:23:23.599Z,501.00
2023-03-06T10:24:23.568Z,501.00
2023-03-06T10:25:24.056Z,500.00
2023-03-06T10:26:23.680Z,502.00
2023-03-06T10:27:23.571Z,502.00
2023-03-06T10:28:23.579Z,503.00
2023-03-06T10:29:23.554Z,514.00
2023-03-06T10:30:23.541Z,501.00
2023-03-06T10:31:24.143Z,502.00
2023-03-06T10:32:23.622Z,500.00
2023-03-06T10:33:23.558Z,511.00
2023-03-06T10:34:23.546Z,503.00
2023-03-06T10:35:23.582Z,500.00
2023-03-06T10:36:23.498Z,560.00
2023-03-06T10:37:23.556Z,547.00
2023-03-06T10:38:24.107Z,518.00
2023-03-06T10:39:24.011Z,504.00
2023-03-06T10:40:23.487Z,501.00
2023-03-06T10:41:23.724Z,500.00
2023-03-06T10:42:24.522Z,512.00
2023-03-06T10:43:23.521Z,502.00
2023-03-06T10:44:23.624Z,501.00
2023-03-06T10:45:24.390Z,506.00
2023-03-06T10:46:23.677Z,509.00
2023-03-06T10:47:26.593Z,506.00
2023-03-06T10:48:23.583Z,507.00
2023-03-06T10:49:23.531Z,508.00
2023-03-06T10:50:23.390Z,500.00
2023-03-06T10:51:24.054Z,501.00
2023-03-06T10:52:23.310Z,505.00
2023-03-06T10:53:23.530Z,505.00
2023-03-06T10:54:23.482Z,517.00
2023-03-06T10:55:23.277Z,512.00
2023-03-06T10:56:23.271Z,506.00
2023-03-06T10:57:23.263Z,513.00
2023-03-06T10:58:23.535Z,537.00
2023-03-06T10:59:24.030Z,519.00
2023-03-06T11:00:23.588Z,517.00
2023-03-06T11:01:23.294Z,504.00
2023-03-06T11:02:23.214Z,502.00
2023-03-06T11:03:23.556Z,507.00
2023-03-06T11:04:23.376Z,503.00
2023-03-06T11:05:23.199Z,501.00
2023-03-06T11:06:24.030Z,500.00
2023-03-06T11:07:23.534Z,507.00
2023-03-06T11:08:23.444Z,505.00
2023-03-06T11:09:23.158Z,504.00
2023-03-06T11:10:23.143Z,504.00
2023-03-06T11:11:36.756Z,504.00
2023-03-06T11:12:23.186Z,505.00
2023-03-06T11:13:23.111Z,500.00
2023-03-06T11:14:23.231Z,506.00
2023-03-06T11:15:23.108Z,501.00
2023-03-06T11:16:25.787Z,496.00
2023-03-06T11:17:23.082Z,499.00
2023-03-06T11:18:23.065Z,500.00
2023-03-06T11:19:23.533Z,505.00
2023-03-06T11:20:23.071Z,505.00
2023-03-06T11:21:23.033Z,512.00
2023-03-06T11:22:23.038Z,520.00
2023-03-06T11:23:23.059Z,470.00
2023-03-06T11:24:23.271Z,483.00
2023-03-06T11:25:23.009Z,540.00
2023-03-06T11:26:23.045Z,551.00
2023-03-06T11:27:22.988Z,550.00
2023-03-06T11:28:23.055Z,548.00
2023-03-06T11:29:23.138Z,533.00
2023-03-06T11:30:22.970Z,539.00
2023-03-06T11:31:23.176Z,549.00
2023-03-06T11:32:23.164Z,545.00
2023-03-06T11:33:23.509Z,554.00
2023-03-06T11:34:23.339Z,551.00
2023-03-06T11:35:22.965Z,563.00
2023-03-06T11:36:22.922Z,555.00
2023-03-06T11:37:23.110Z,554.00
2023-03-06T11:38:22.892Z,539.00
2023-03-06T11:39:22.880Z,547.00
2023-03-06T11:40:22.898Z,581.00
2023-03-06T11:41:22.855Z,615.00
2023-03-06T11:42:22.849Z,637.00
2023-03-06T11:43:23.044Z,655.00
2023-03-06T11:44:22.821Z,667.00
2023-03-06T11:45:22.813Z,692.00
2023-03-06T11:46:26.342Z,715.00
2023-03-06T11:47:22.804Z,716.00
2023-03-06T11:48:22.819Z,721.00
2023-03-06T11:49:22.821Z,741.00
2023-03-06T11:50:22.929Z,801.00
2023-03-06T11:51:23.042Z,831.00
2023-03-06T11:52:23.052Z,848.00
2023-03-06T11:53:22.778Z,866.00
2023-03-06T11:54:22.785Z,871.00
2023-03-06T11:55:22.750Z,885.00
2023-03-06T11:56:22.800Z,905.00
2023-03-06T11:57:23.094Z,890.00
2023-03-06T11:58:22.736Z,911.00
2023-03-06T11:59:23.045Z,924.00
2023-03-06T12:00:22.688Z,910.00
2023-03-06T12:01:22.672Z,946.00
2023-03-06T12:02:22.683Z,938.00
2023-03-06T12:03:23.052Z,1030.00
2023-03-06T12:04:22.673Z,1055.00
2023-03-06T12:05:22.749Z,1111.00
2023-03-06T12:06:22.627Z,1055.00
2023-03-06T12:07:22.632Z,1050.00
2023-03-06T12:08:23.052Z,1088.00
2023-03-06T12:09:23.495Z,1103.00
2023-03-06T12:10:22.594Z,1129.00
2023-03-06T12:11:22.591Z,1150.00
2023-03-06T12:12:22.608Z,1209.00
2023-03-06T12:13:22.566Z,1160.00
2023-03-06T12:14:23.255Z,1180.00
2023-03-06T12:15:22.545Z,1185.00
2023-03-06T12:16:22.562Z,1201.00
2023-03-06T12:17:22.526Z,1223.00
2023-03-06T12:18:22.527Z,1234.00
2023-03-06T12:19:22.569Z,1039.00
2023-03-06T12:20:22.581Z,823.00
2023-03-06T12:22:22.575Z,740.00
2023-03-06T12:31:22.451Z,1133.00
2023-03-06T13:09:43.076Z,1457.00
2023-03-06T13:23:24.611Z,1436.00
2023-03-06T13:24:21.928Z,1439.00
2023-03-06T13:25:22.034Z,1451.00
2023-03-06T13:26:21.926Z,1446.00
2023-03-06T13:27:21.902Z,1437.00
2023-03-06T13:28:21.891Z,1432.00
2023-03-06T13:29:21.879Z,1446.00
2023-03-06T13:30:21.873Z,1446.00
2023-03-06T13:31:27.453Z,1459.00
2023-03-06T13:32:22.625Z,1461.00
2023-03-06T13:33:21.838Z,1464.00
2023-03-06T13:34:21.836Z,1460.00
2023-03-06T13:35:21.849Z,1479.00
2023-03-06T13:36:21.818Z,1441.00
2023-03-06T13:37:22.086Z,1542.00
2023-03-06T13:38:22.662Z,1480.00
2023-03-06T13:39:21.817Z,1517.00
2023-03-06T13:40:22.581Z,1456.00
2023-03-06T13:41:21.767Z,1497.00
2023-03-06T13:42:21.759Z,1509.00
2023-03-06T13:43:21.748Z,1479.00
2023-03-06T13:44:21.746Z,1452.00
2023-03-06T13:45:22.089Z,1448.00
2023-03-06T13:46:21.784Z,1446.00
2023-03-06T13:47:21.729Z,1467.00
2023-03-06T13:48:41.540Z,1523.00
2023-03-06T13:49:21.691Z,1526.00
2023-03-06T13:50:21.693Z,1529.00
2023-03-06T13:51:21.996Z,1537.00
2023-03-06T13:52:21.666Z,1482.00
2023-03-06T14:05:24.089Z,1380.00
2023-03-06T14:13:35.090Z,1372.00
2023-03-06T14:22:28.087Z,1336.00
2023-03-06T14:25:24.091Z,1339.00
2023-03-06T14:28:28.096Z,1338.00
2023-03-06T14:36:24.151Z,1326.00
2023-03-06T14:45:36.106Z,1303.00
2023-03-06T14:57:21.085Z,1292.00
2023-03-06T14:58:27.655Z,1291.00
2023-03-06T14:59:21.181Z,1292.00
2023-03-06T15:00:21.676Z,1292.00
2023-03-06T15:01:21.064Z,1294.00
2023-03-06T15:02:21.034Z,1292.00
2023-03-06T15:03:21.023Z,1279.00
2023-03-06T15:04:27.663Z,1287.00
2023-03-06T15:05:21.011Z,1289.00
2023-03-06T15:06:21.007Z,1290.00
2023-03-06T15:07:21.190Z,1291.00
2023-03-06T15:08:20.985Z,1288.00
2023-03-06T15:09:21.628Z,1282.00
2023-03-06T15:10:20.966Z,1284.00
2023-03-06T15:12:20.981Z,1278.00
2023-03-06T15:13:27.633Z,1279.00
2023-03-06T15:14:23.686Z,1281.00
2023-03-06T15:15:20.938Z,1280.00
2023-03-06T15:16:20.950Z,1281.00
2023-03-06T15:17:21.118Z,1280.00
2023-03-06T15:18:20.891Z,1278.00
2023-03-06T15:19:21.129Z,1271.00
2023-03-06T15:20:20.871Z,1263.00
2023-03-06T15:21:20.867Z,1251.00
2023-03-06T15:22:21.624Z,1255.00
2023-03-06T15:23:20.854Z,1258.00
2023-03-06T15:24:20.842Z,1258.00
2023-03-06T15:25:21.134Z,1260.00
2023-03-06T15:26:20.817Z,1252.00
2023-03-06T15:27:20.808Z,1258.00
2023-03-06T15:28:20.798Z,1251.00
2023-03-06T15:29:23.639Z,1252.00
2023-03-06T15:30:21.145Z,1253.00
2023-03-06T15:31:20.859Z,1253.00
2023-03-06T15:32:20.783Z,1257.00
2023-03-06T15:33:20.755Z,1264.00
2023-03-06T15:34:20.742Z,1282.00
2023-03-06T15:35:20.788Z,1325.00
2023-03-06T15:36:20.731Z,1331.00
2023-03-06T15:37:23.622Z,1320.00
2023-03-06T15:38:20.705Z,1321.00
2023-03-06T15:39:21.128Z,1340.00
2023-03-06T15:40:21.137Z,1357.00
2023-03-06T15:41:20.697Z,1432.00
2023-03-06T15:42:20.691Z,1516.00
2023-03-06T15:43:20.667Z,1410.00
2023-03-06T15:44:21.140Z,1321.00
2023-03-06T15:45:20.654Z,1315.00
2023-03-06T15:46:20.665Z,1328.00
2023-03-06T15:47:20.632Z,1340.00
2023-03-06T15:48:27.129Z,1351.00
2023-03-06T15:49:21.133Z,1353.00
2023-03-06T15:50:20.606Z,1356.00
2023-03-06T15:51:21.169Z,1359.00
2023-03-06T15:52:20.627Z,1366.00
2023-03-06T15:53:21.135Z,1366.00
2023-03-06T15:54:20.577Z,1375.00
2023-03-06T15:55:20.564Z,1366.00
2023-03-06T15:56:20.553Z,1358.00
2023-03-06T15:57:20.549Z,1362.00
2023-03-06T15:58:20.591Z,1357.00
2023-03-06T15:59:21.133Z,1354.00
2023-03-06T16:00:27.291Z,1360.00
2023-03-06T16:01:20.525Z,1361.00
2023-03-06T16:02:20.578Z,1363.00
2023-03-06T16:03:23.140Z,1360.00
2023-03-06T16:04:20.625Z,1361.00
2023-03-06T16:05:20.704Z,1361.00
2023-03-06T16:06:20.465Z,1361.00
2023-03-06T16:07:20.455Z,1358.00
2023-03-06T16:08:23.138Z,1350.00
2023-03-06T16:09:23.139Z,1360.00
2023-03-06T16:10:20.651Z,1361.00
2023-03-06T16:11:24.579Z,1360.00
2023-03-06T16:12:41.421Z,1362.00
2023-03-06T16:13:21.139Z,1366.00
2023-03-06T16:14:20.388Z,1369.00
2023-03-06T16:15:22.145Z,1369.00
2023-03-06T16:16:20.653Z,1371.00
2023-03-06T16:17:20.611Z,1361.00
2023-03-06T16:18:23.179Z,1344.00
2023-03-06T16:19:26.340Z,1353.00
2023-03-06T16:20:23.686Z,1355.00
2023-03-06T16:21:20.605Z,1354.00
2023-03-06T16:22:20.564Z,1346.00
2023-03-06T16:23:20.562Z,1336.00
2023-03-06T16:24:21.148Z,1324.00
2023-03-06T16:25:20.538Z,1324.00
2023-03-06T16:26:20.645Z,1318.00
2023-03-06T16:27:20.518Z,1312.00
2023-03-06T16:28:20.514Z,1305.00
2023-03-06T16:29:20.501Z,1307.00
2023-03-06T16:30:20.488Z,1298.00
2023-03-06T16:31:20.487Z,1297.00
2023-03-06T16:32:20.516Z,1290.00
2023-03-06T16:33:20.468Z,1292.00
2023-03-06T16:34:20.493Z,1290.00
2023-03-06T16:35:20.485Z,1295.00
2023-03-06T16:36:20.436Z,1281.00
2023-03-06T16:37:20.434Z,1283.00
2023-03-06T16:38:20.421Z,1278.00
2023-03-06T16:39:20.407Z,1278.00
2023-03-06T16:40:20.397Z,1284.00
2023-03-06T16:41:20.394Z,1276.00
2023-03-06T16:42:20.380Z,1277.00
2023-03-06T16:43:20.370Z,1279.00
2023-03-06T16:44:20.414Z,1270.00
2023-03-06T16:45:20.374Z,1268.00
2023-03-06T16:46:20.416Z,1264.00
2023-03-06T16:47:23.144Z,1279.00
2023-03-06T16:48:20.333Z,1279.00
2023-03-06T16:49:20.374Z,1280.00
2023-03-06T16:50:20.344Z,1278.00
2023-03-06T16:51:20.311Z,1272.00
2023-03-06T16:52:20.293Z,1271.00
2023-03-06T16:53:20.341Z,1268.00
2023-03-06T16:54:20.270Z,1267.00
2023-03-06T16:55:20.265Z,1257.00
2023-03-06T16:56:20.259Z,1260.00
2023-03-06T16:57:20.260Z,1254.00
2023-03-06T16:58:20.264Z,1252.00
2023-03-06T16:59:20.309Z,1244.00
2023-03-06T17:00:20.219Z,1250.00
2023-03-06T17:01:20.279Z,1242.00
2023-03-06T17:02:20.245Z,1243.00
2023-03-06T17:03:20.226Z,1240.00
2023-03-06T17:04:20.184Z,1239.00
2023-03-06T17:05:20.198Z,1234.00
2023-03-06T17:06:20.190Z,1234.00
2023-03-06T17:07:21.160Z,1229.00
2023-03-06T17:08:20.149Z,1234.00
2023-03-06T17:09:20.207Z,1231.00
2023-03-06T17:10:34.684Z,1233.00
2023-03-06T17:11:20.652Z,1237.00
2023-03-06T17:12:20.655Z,1240.00
2023-03-06T17:13:20.103Z,1240.00
2023-03-06T17:14:20.125Z,1237.00
2023-03-06T17:15:20.091Z,1236.00
2023-03-06T17:16:20.128Z,1227.00
2023-03-06T17:17:20.073Z,1222.00
2023-03-06T17:18:20.066Z,1220.00
2023-03-06T17:19:20.171Z,1204.00
2023-03-06T17:20:20.037Z,1217.00
2023-03-06T17:21:20.032Z,1206.00
2023-03-06T17:22:20.049Z,1205.00
2023-03-06T17:23:20.017Z,1201.00
2023-03-06T17:24:20.026Z,1207.00
2023-03-06T17:25:20.003Z,1205.00
2023-03-06T17:26:20.670Z,1195.00
2023-03-06T17:27:19.980Z,1194.00
2023-03-06T17:28:19.970Z,1196.00
2023-03-06T17:29:19.964Z,1202.00
2023-03-06T17:30:19.949Z,1188.00
2023-03-06T17:31:20.029Z,1186.00
2023-03-06T17:32:20.215Z,1182.00
2023-03-06T17:33:19.920Z,1182.00
2023-03-06T17:34:19.932Z,1177.00
2023-03-06T17:35:19.956Z,1189.00
2023-03-06T17:36:20.007Z,1178.00
2023-03-06T17:37:19.923Z,1174.00
2023-03-06T17:38:20.020Z,1173.00
2023-03-06T17:39:19.870Z,1181.00
2023-03-06T17:40:19.855Z,1177.00
2023-03-06T17:41:19.894Z,1173.00
2023-03-06T17:42:19.861Z,1174.00
2023-03-06T17:43:19.829Z,1171.00
2023-03-06T17:44:19.863Z,1171.00
2023-03-06T17:45:19.813Z,1171.00
2023-03-06T17:46:19.844Z,1177.00
2023-03-06T17:47:19.821Z,1175.00
2023-03-06T17:48:20.670Z,1174.00
2023-03-06T17:49:20.673Z,1173.00
2023-03-06T17:50:19.765Z,1165.00
2023-03-06T17:51:19.763Z,1157.00
2023-03-06T17:52:19.752Z,1162.00
2023-03-06T17:53:19.741Z,1167.00
2023-03-06T17:54:19.774Z,1153.00
2023-03-06T17:55:19.728Z,1151.00
2023-03-06T17:56:19.719Z,1159.00
2023-03-06T17:57:19.708Z,1153.00
2023-03-06T17:58:34.731Z,1149.00
2023-03-06T17:59:20.683Z,1153.00
2023-03-06T18:00:19.677Z,1157.00
2023-03-06T18:01:19.706Z,1158.00
2023-03-06T18:02:19.653Z,1158.00
2023-03-06T18:03:19.647Z,1157.00
2023-03-06T18:04:19.646Z,1164.00
2023-03-06T18:05:19.634Z,1153.00
2023-03-06T18:06:19.624Z,1151.00
2023-03-06T18:07:19.617Z,1152.00
2023-03-06T18:08:19.601Z,1145.00
2023-03-06T18:09:19.608Z,1153.00
2023-03-06T18:10:19.606Z,1145.00
2023-03-06T18:11:19.572Z,1141.00
2023-03-06T18:12:19.563Z,1141.00
2023-03-06T18:13:19.560Z,1144.00
2023-03-06T18:14:19.696Z,1140.00
2023-03-06T18:15:19.537Z,1136.00
2023-03-06T18:16:19.596Z,1134.00
2023-03-06T18:17:19.610Z,1144.00
2023-03-06T18:18:19.515Z,1145.00
2023-03-06T18:19:19.501Z,1137.00
2023-03-06T18:20:19.493Z,1145.00
2023-03-06T18:21:19.482Z,1144.00
2023-03-06T18:22:19.512Z,1139.00
2023-03-06T18:23:20.180Z,1131.00
2023-03-06T18:24:19.455Z,1135.00
2023-03-06T18:25:19.445Z,1139.00
2023-03-06T18:26:19.472Z,1136.00
2023-03-06T18:27:19.436Z,1139.00
2023-03-06T18:28:19.442Z,1127.00
2023-03-06T18:29:19.413Z,1129.00
2023-03-06T18:30:19.409Z,1126.00
2023-03-06T18:31:19.434Z,1120.00
2023-03-06T18:32:20.230Z,1132.00
2023-03-06T18:33:19.424Z,1124.00
2023-03-06T18:34:19.376Z,1134.00
2023-03-06T18:35:19.395Z,1122.00
2023-03-06T18:36:20.190Z,1129.00
2023-03-06T18:37:19.347Z,1123.00
2023-03-06T18:38:19.364Z,1133.00
2023-03-06T18:39:19.333Z,1116.00
2023-03-06T18:40:19.327Z,1112.00
2023-03-06T18:41:19.301Z,1125.00
2023-03-06T18:42:19.325Z,1119.00
2023-03-06T18:43:19.283Z,1126.00
2023-03-06T18:44:19.712Z,1118.00
2023-03-06T18:45:22.197Z,1119.00
2023-03-06T18:46:19.261Z,1120.00
2023-03-06T18:47:22.199Z,1120.00
2023-03-06T18:48:19.272Z,1120.00
2023-03-06T18:49:19.236Z,1121.00
2023-03-06T18:50:19.220Z,1122.00
2023-03-06T18:51:19.214Z,1118.00
2023-03-06T18:52:19.205Z,1123.00
2023-03-06T18:53:19.221Z,1123.00
2023-03-06T18:54:19.208Z,1124.00
2023-03-06T18:55:19.695Z,1126.00
2023-03-06T18:56:19.169Z,1121.00
2023-03-06T18:57:19.168Z,1118.00
2023-03-06T18:58:19.175Z,1119.00
2023-03-06T18:59:19.147Z,1105.00
2023-03-06T19:00:19.697Z,1110.00
2023-03-06T19:01:19.221Z,1105.00
2023-03-06T19:02:19.113Z,1123.00
2023-03-06T19:03:19.102Z,1110.00
2023-03-06T19:04:19.246Z,1110.00
2023-03-06T19:05:21.702Z,1116.00
2023-03-06T19:06:19.090Z,1116.00
2023-03-06T19:07:19.717Z,1116.00
2023-03-06T19:08:19.061Z,1116.00
2023-03-06T19:09:19.212Z,1109.00
2023-03-06T19:10:19.045Z,1110.00
2023-03-06T19:11:19.038Z,1118.00
2023-03-06T19:12:19.029Z,1110.00
2023-03-06T19:13:19.021Z,1103.00
2023-03-06T19:14:19.035Z,1105.00
2023-03-06T19:15:19.001Z,1112.00
2023-03-06T19:16:19.026Z,1109.00
2023-03-06T19:17:19.214Z,1106.00
2023-03-06T19:18:18.988Z,1104.00
2023-03-06T19:19:18.967Z,1100.00
2023-03-06T19:20:18.959Z,1090.00
2023-03-06T19:21:18.977Z,1096.00
2023-03-06T19:22:19.713Z,1095.00
2023-03-06T19:23:18.931Z,1105.00
2023-03-06T19:24:18.930Z,1097.00
2023-03-06T19:25:18.910Z,1086.00
2023-03-06T19:26:18.954Z,1090.00
2023-03-06T19:27:18.890Z,1086.00
2023-03-06T19:28:18.902Z,1091.00
2023-03-06T19:29:18.880Z,1092.00
2023-03-06T19:30:18.891Z,1098.00
2023-03-06T19:31:19.667Z,1093.00
2023-03-06T19:32:18.996Z,1087.00
2023-03-06T19:33:18.845Z,1087.00
2023-03-06T19:34:19.727Z,1092.00
2023-03-06T19:35:33.810Z,1088.00
2023-03-06T19:36:18.825Z,1093.00
2023-03-06T19:37:18.805Z,1094.00
2023-03-06T19:38:18.794Z,1097.00
2023-03-06T19:39:19.724Z,1093.00
2023-03-06T19:40:18.779Z,1107.00
2023-03-06T19:41:18.774Z,1108.00
2023-03-06T19:42:18.757Z,1102.00
2023-03-06T19:43:18.753Z,1091.00
2023-03-06T19:44:18.747Z,1089.00
2023-03-06T19:45:18.733Z,1081.00
2023-03-06T19:46:18.782Z,1086.00
2023-03-06T19:47:18.716Z,1086.00
2023-03-06T19:48:18.997Z,1088.00
2023-03-06T19:49:18.697Z,1081.00
2023-03-06T19:50:18.690Z,1073.00
2023-03-06T19:51:18.679Z,1077.00
2023-03-06T19:52:18.667Z,1077.00
2023-03-06T19:53:18.660Z,1074.00
2023-03-06T19:54:18.658Z,1075.00
2023-03-06T19:55:18.646Z,1066.00
2023-03-06T19:56:21.265Z,1074.00
2023-03-06T19:57:18.627Z,1074.00
2023-03-06T19:58:18.615Z,1074.00
2023-03-06T19:59:18.619Z,1071.00
2023-03-06T20:00:18.605Z,1066.00
2023-03-06T20:01:18.642Z,1072.00
2023-03-06T20:02:25.258Z,1082.00
2023-03-06T20:03:18.576Z,1084.00
2023-03-06T20:04:18.615Z,1083.00
2023-03-06T20:05:21.239Z,1086.00
2023-03-06T20:06:18.565Z,1083.00
2023-03-06T20:07:18.542Z,1081.00
2023-03-06T20:08:18.533Z,1077.00
2023-03-06T20:09:18.518Z,1078.00
2023-03-06T20:10:19.234Z,1067.00
2023-03-06T20:11:21.236Z,1084.00
2023-03-06T20:12:18.506Z,1085.00
2023-03-06T20:13:18.478Z,1071.00
2023-03-06T20:14:18.742Z,1074.00
2023-03-06T20:15:19.229Z,1071.00
2023-03-06T20:16:18.457Z,1069.00
2023-03-06T20:17:18.445Z,1072.00
2023-03-06T20:18:18.502Z,1065.00
2023-03-06T20:19:18.423Z,1062.00
2023-03-06T20:20:18.408Z,1060.00
2023-03-06T20:21:18.408Z,1057.00
2023-03-06T20:22:18.389Z,1060.00
2023-03-06T20:23:19.230Z,1058.00
2023-03-06T20:24:18.372Z,1057.00
2023-03-06T20:25:18.383Z,1059.00
2023-03-06T20:26:19.234Z,1050.00
2023-03-06T20:27:18.345Z,1062.00
2023-03-06T20:28:18.333Z,1055.00
2023-03-06T20:29:18.331Z,1055.00
2023-03-06T20:30:18.318Z,1050.00
2023-03-06T20:31:18.370Z,1049.00
2023-03-06T20:32:18.359Z,1047.00
2023-03-06T20:33:18.302Z,1053.00
2023-03-06T20:34:18.316Z,1040.00
2023-03-06T20:35:18.768Z,1049.00
2023-03-06T20:36:18.266Z,1053.00
2023-03-06T20:37:18.248Z,1041.00
2023-03-06T20:38:18.254Z,1042.00
2023-03-06T20:39:18.235Z,1053.00
2023-03-06T20:40:18.316Z,1043.00
2023-03-06T20:41:18.213Z,1046.00
2023-03-06T20:42:18.735Z,1045.00
2023-03-06T20:43:18.203Z,1051.00
2023-03-06T20:44:18.192Z,1046.00
2023-03-06T20:45:18.181Z,1043.00
2023-03-06T20:46:18.204Z,1036.00
2023-03-06T20:47:18.164Z,1034.00
2023-03-06T20:48:18.159Z,1042.00
2023-03-06T20:49:27.167Z,1048.00
2023-03-06T20:50:18.151Z,1051.00
2023-03-06T20:51:18.133Z,1051.00
2023-03-06T20:52:18.117Z,1052.00
2023-03-06T20:53:18.107Z,1046.00
2023-03-06T20:54:18.170Z,1047.00
2023-03-06T20:55:18.092Z,1041.00
2023-03-06T20:56:18.096Z,1054.00
2023-03-06T20:57:18.081Z,1038.00
2023-03-06T20:58:18.065Z,1036.00
2023-03-06T20:59:18.054Z,1036.00
2023-03-06T21:00:18.050Z,1033.00
2023-03-06T21:01:18.106Z,1028.00
2023-03-06T21:02:18.027Z,1028.00
2023-03-06T21:03:18.022Z,1022.00
2023-03-06T21:04:18.013Z,1024.00
2023-03-06T21:05:18.058Z,1018.00
2023-03-06T21:06:18.745Z,1025.00
2023-03-06T21:07:17.982Z,1032.00
2023-03-06T21:08:17.979Z,1029.00
2023-03-06T21:09:17.982Z,1024.00
2023-03-06T21:10:17.955Z,1034.00
2023-03-06T21:11:17.946Z,1028.00
2023-03-06T21:12:17.944Z,1037.00
2023-03-06T21:13:17.929Z,1013.00
2023-03-06T21:14:17.943Z,1023.00
2023-03-06T21:15:17.910Z,1022.00
2023-03-06T21:16:18.025Z,1020.00
2023-03-06T21:17:17.902Z,1022.00
2023-03-06T21:18:17.895Z,1028.00
2023-03-06T21:19:17.878Z,1019.00
2023-03-06T21:20:17.876Z,1023.00
2023-03-06T21:21:17.903Z,1020.00
2023-03-06T21:22:17.855Z,1013.00
2023-03-06T21:23:17.841Z,1011.00
2023-03-06T21:24:19.710Z,1005.00
2023-03-06T21:25:17.833Z,1006.00
2023-03-06T21:26:17.814Z,1008.00
2023-03-06T21:27:17.810Z,1008.00
2023-03-06T21:28:17.800Z,1013.00
2023-03-06T21:29:18.828Z,1020.00
2023-03-06T21:30:17.793Z,1020.00
2023-03-06T21:31:17.878Z,1019.00
2023-03-06T21:32:17.816Z,1014.00
2023-03-06T21:33:17.752Z,1014.00
2023-03-06T21:34:17.773Z,1019.00
2023-03-06T21:35:17.732Z,1013.00
2023-03-06T21:36:17.739Z,1011.00
2023-03-06T21:37:17.745Z,1011.00
2023-03-06T21:38:17.709Z,1021.00
2023-03-06T21:39:18.297Z,1003.00
2023-03-06T21:40:17.694Z,1004.00
2023-03-06T21:41:17.682Z,1004.00
2023-03-06T21:42:17.675Z,1001.00
2023-03-06T21:43:18.269Z,1006.00
2023-03-06T21:44:17.668Z,995.00
2023-03-06T21:45:17.646Z,1000.00
2023-03-06T21:46:17.678Z,1003.00
2023-03-06T21:47:17.634Z,1003.00
2023-03-06T21:48:17.631Z,1007.00
2023-03-06T21:49:17.613Z,992.00
2023-03-06T21:50:17.602Z,994.00
2023-03-06T21:51:17.608Z,1000.00
2023-03-06T21:52:17.584Z,993.00
2023-03-06T21:53:17.605Z,991.00
2023-03-06T21:54:17.566Z,985.00
2023-03-06T21:55:17.557Z,994.00
2023-03-06T21:56:17.794Z,985.00
2023-03-06T21:57:17.541Z,1000.00
2023-03-06T21:58:17.531Z,987.00
2023-03-06T21:59:17.519Z,986.00
2023-03-06T22:00:17.509Z,993.00
2023-03-06T22:01:17.555Z,996.00
2023-03-06T22:02:17.499Z,993.00
2023-03-06T22:03:17.482Z,987.00
2023-03-06T22:04:17.506Z,982.00
2023-03-06T22:05:17.481Z,983.00
2023-03-06T22:06:17.506Z,983.00
2023-03-06T22:07:17.449Z,990.00
2023-03-06T22:08:17.437Z,977.00
2023-03-06T22:09:17.454Z,976.00
2023-03-06T22:10:17.427Z,980.00
2023-03-06T22:11:24.309Z,964.00
2023-03-06T22:12:17.407Z,966.00
2023-03-06T22:13:17.394Z,968.00
2023-03-06T22:14:17.387Z,972.00
2023-03-06T22:15:17.379Z,974.00
2023-03-06T22:16:17.498Z,972.00
2023-03-06T22:17:17.362Z,981.00
2023-03-06T22:18:17.349Z,980.00
2023-03-06T22:19:17.341Z,974.00
2023-03-06T22:20:20.277Z,986.00
2023-03-06T22:21:17.323Z,986.00
2023-03-06T22:22:17.317Z,986.00
2023-03-06T22:23:17.318Z,974.00
2023-03-06T22:24:17.301Z,977.00
2023-03-06T22:25:17.316Z,965.00
2023-03-06T22:26:17.780Z,971.00
2023-03-06T22:27:17.272Z,978.00
2023-03-06T22:28:17.262Z,976.00
2023-03-06T22:29:17.261Z,967.00
2023-03-06T22:30:17.248Z,965.00
2023-03-06T22:31:17.284Z,959.00
2023-03-06T22:32:17.398Z,969.00
2023-03-06T22:33:17.213Z,957.00
2023-03-06T22:34:17.199Z,968.00
2023-03-06T22:35:17.195Z,967.00
2023-03-06T22:36:17.178Z,971.00
2023-03-06T22:37:17.178Z,959.00
2023-03-06T22:38:17.168Z,975.00
2023-03-06T22:39:17.155Z,973.00
2023-03-06T22:40:17.157Z,961.00
2023-03-06T22:41:17.190Z,966.00
2023-03-06T22:42:17.131Z,959.00
2023-03-06T22:43:17.123Z,956.00
2023-03-06T22:44:17.116Z,960.00
2023-03-06T22:45:17.098Z,961.00
2023-03-06T22:46:17.197Z,963.00
2023-03-06T22:47:17.108Z,956.00
2023-03-06T22:48:17.071Z,954.00
2023-03-06T22:49:17.111Z,962.00
2023-03-06T22:50:17.061Z,953.00
2023-03-06T22:51:17.053Z,964.00
2023-03-06T22:52:17.034Z,960.00
2023-03-06T22:53:17.027Z,958.00
2023-03-06T22:54:17.015Z,950.00
2023-03-06T22:55:17.008Z,957.00
2023-03-06T22:56:17.008Z,949.00
2023-03-06T22:57:17.811Z,956.00
2023-03-06T22:58:17.289Z,957.00
2023-03-06T22:59:16.975Z,949.00
2023-03-06T23:00:16.979Z,953.00
2023-03-06T23:01:17.092Z,944.00
2023-03-06T23:02:16.956Z,949.00
2023-03-06T23:03:16.942Z,944.00
2023-03-06T23:04:16.963Z,947.00
2023-03-06T23:05:16.937Z,955.00
2023-03-06T23:06:16.917Z,952.00
2023-03-06T23:07:16.942Z,949.00
2023-03-06T23:08:16.896Z,953.00
2023-03-06T23:09:16.909Z,949.00
2023-03-06T23:10:16.903Z,939.00
2023-03-06T23:11:16.912Z,935.00
2023-03-06T23:12:16.898Z,938.00
2023-03-06T23:13:17.334Z,950.00
2023-03-06T23:14:17.866Z,935.00
2023-03-06T23:15:16.866Z,949.00
2023-03-06T23:16:16.824Z,940.00
2023-03-06T23:17:16.813Z,944.00
2023-03-06T23:18:16.810Z,936.00